createdAt,value
2018-09-22T00:00:54.317Z,101000.48
2018-09-22T00:01:59.803Z,100999.59
2018-09-22T00:03:05.327Z,100999.23
2018-09-22T00:04:10.773Z,100998.43
2018-09-22T00:05:16.220Z,100996.73
2018-09-22T00:06:21.706Z,100998.58
2018-09-22T00:07:27.182Z,101003.77
2018-09-22T00:08:32.653Z,101013.59
2018-09-22T00:09:38.135Z,101009.38
2018-09-22T00:10:43.572Z,101011.55
2018-09-22T00:11:48.989Z,101019.28
2018-09-22T00:12:54.420Z,101015.91
2018-09-22T00:13:59.909Z,101011.97
2018-09-22T00:15:05.468Z,101015.91
2018-09-22T00:16:11.321Z,101007.71
2018-09-22T00:17:16.858Z,101013.02
2018-09-22T00:18:22.397Z,101014.72
2018-09-22T00:19:27.905Z,101015.55
2018-09-22T00:20:33.337Z,101010.45
2018-09-22T00:21:38.766Z,101013.91
2018-09-22T00:22:44.240Z,101011.80
2018-09-22T00:23:49.994Z,101008.36
2018-09-22T00:24:55.630Z,101008.72
2018-09-22T00:26:01.182Z,101010.81
2018-09-22T00:27:06.955Z,101012.12
2018-09-22T00:28:12.409Z,101015.55
2018-09-22T00:29:17.890Z,101018.92
2018-09-22T00:30:23.326Z,101024.55
2018-09-22T00:31:28.844Z,101027.53
2018-09-22T00:32:34.280Z,101028.40
2018-09-22T00:33:39.733Z,101036.95
2018-09-22T00:34:45.162Z,101034.37
2018-09-22T00:35:50.577Z,101039.05
2018-09-22T00:36:55.993Z,101043.28
2018-09-22T00:38:01.517Z,101037.65
2018-09-22T00:39:09.839Z,101038.91
2018-09-22T00:40:15.254Z,101044.36
2018-09-22T00:41:20.741Z,101039.63
2018-09-22T00:42:26.212Z,101037.44
2018-09-22T00:43:31.636Z,101040.40
2018-09-22T00:44:37.159Z,101043.34
2018-09-22T00:45:42.889Z,101048.06
2018-09-22T00:46:48.308Z,101048.48
2018-09-22T00:47:53.738Z,101061.69
2018-09-22T00:48:59.164Z,101059.16
2018-09-22T00:50:04.703Z,101056.09
2018-09-22T00:51:10.229Z,101061.69
2018-09-22T00:52:15.725Z,101059.60
2018-09-22T00:53:21.157Z,101069.92
2018-09-22T00:54:26.689Z,101070.75
2018-09-22T00:55:32.072Z,101063.93
2018-09-22T00:56:37.570Z,101064.84
2018-09-22T00:57:43.023Z,101067.86
2018-09-22T00:58:48.443Z,101073.80
2018-09-22T00:59:53.868Z,101074.72
2018-09-22T01:00:59.381Z,101066.22
2018-09-22T01:02:04.890Z,101068.78
2018-09-22T01:03:10.377Z,101074.75
2018-09-22T01:04:15.830Z,101070.00
2018-09-22T01:05:21.240Z,101069.62
2018-09-22T01:06:26.721Z,101082.16
2018-09-22T01:07:32.212Z,101086.06
2018-09-22T01:08:37.705Z,101084.75
2018-09-22T01:09:43.204Z,101086.54
2018-09-22T01:10:48.860Z,101094.20
2018-09-22T01:11:54.324Z,101086.54
2018-09-22T01:12:59.961Z,101086.94
2018-09-22T01:14:05.413Z,101089.52
2018-09-22T01:15:10.853Z,101089.08
2018-09-22T01:16:16.346Z,101093.88
2018-09-22T01:17:21.766Z,101090.86
2018-09-22T01:18:27.264Z,101090.86
2018-09-22T01:19:32.740Z,101093.90
2018-09-22T01:20:38.280Z,101096.48
2018-09-22T01:21:43.768Z,101108.08
2018-09-22T01:22:49.213Z,101104.70
2018-09-22T01:23:54.651Z,101103.87
2018-09-22T01:25:00.102Z,101100.02
2018-09-22T01:26:05.533Z,101100.08
2018-09-22T01:27:11.044Z,101094.97
2018-09-22T01:28:16.486Z,101095.08
2018-09-22T01:29:21.908Z,101098.91
2018-09-22T01:30:27.348Z,101104.03
2018-09-22T01:31:32.788Z,101105.31
2018-09-22T01:32:38.621Z,101109.09
2018-09-22T01:33:44.074Z,101116.79
2018-09-22T01:34:49.649Z,101119.35
2018-09-22T01:35:55.095Z,101121.50
2018-09-22T01:37:00.718Z,101119.77
2018-09-22T01:38:06.277Z,101121.03
2018-09-22T01:39:12.404Z,101123.95
2018-09-22T01:40:18.058Z,101120.92
2018-09-22T01:41:23.522Z,101129.84
2018-09-22T01:42:28.995Z,101133.72
2018-09-22T01:43:34.475Z,101132.02
2018-09-22T01:44:40.035Z,101133.74
2018-09-22T01:45:45.513Z,101133.82
2018-09-22T01:46:50.990Z,101135.58
2018-09-22T01:47:56.505Z,101144.91
2018-09-22T01:49:02.234Z,101142.34
2018-09-22T01:50:07.692Z,101145.75
2018-09-22T01:51:13.321Z,101141.44
2018-09-22T01:52:18.814Z,101138.50
2018-09-22T01:53:24.198Z,101140.64
2018-09-22T01:54:29.722Z,101142.77
2018-09-22T01:55:35.156Z,101142.33
2018-09-22T01:56:40.565Z,101142.72
2018-09-22T01:57:46.159Z,101143.11
2018-09-22T01:58:51.645Z,101148.19
2018-09-22T01:59:57.065Z,101149.00
2018-09-22T02:01:02.708Z,101149.34
2018-09-22T02:02:08.169Z,101157.37
2018-09-22T02:03:13.838Z,101151.41
2018-09-22T02:04:19.282Z,101156.06
2018-09-22T02:05:24.809Z,101153.02
2018-09-22T02:06:30.394Z,101155.52
2018-09-22T02:07:35.845Z,101154.20
2018-09-22T02:08:41.315Z,101154.20
2018-09-22T02:09:46.780Z,101152.42
2018-09-22T02:10:52.386Z,101150.58
2018-09-22T02:11:57.838Z,101151.47
2018-09-22T02:13:03.297Z,101156.55
2018-09-22T02:14:08.797Z,101170.60
2018-09-22T02:15:14.274Z,101188.94
2018-09-22T02:16:19.718Z,101192.33
2018-09-22T02:17:25.258Z,101187.25
2018-09-22T02:18:30.704Z,101185.58
2018-09-22T02:19:36.142Z,101181.34
2018-09-22T02:20:41.778Z,101180.86
2018-09-22T02:21:47.442Z,101182.98
2018-09-22T02:22:52.925Z,101181.23
2018-09-22T02:23:58.386Z,101184.14
2018-09-22T02:25:03.894Z,101186.67
2018-09-22T02:26:09.325Z,101192.59
2018-09-22T02:27:14.801Z,101192.59
2018-09-22T02:28:20.235Z,101185.28
2018-09-22T02:29:25.714Z,101184.92
2018-09-22T02:30:31.189Z,101182.73
2018-09-22T02:31:36.777Z,101184.89
2018-09-22T02:32:42.207Z,101180.17
2018-09-22T02:33:47.661Z,101178.50
2018-09-22T02:34:53.083Z,101182.73
2018-09-22T02:35:58.546Z,101172.90
2018-09-22T02:37:04.031Z,101187.52
2018-09-22T02:38:09.431Z,101186.25
2018-09-22T02:39:14.941Z,101186.70
2018-09-22T02:40:20.376Z,101188.06
2018-09-22T02:41:25.837Z,101180.86
2018-09-22T02:42:31.299Z,101187.77
2018-09-22T02:43:36.693Z,101187.72
2018-09-22T02:44:42.244Z,101187.72
2018-09-22T02:45:47.672Z,101187.72
2018-09-22T02:46:53.190Z,101192.17
2018-09-22T02:47:58.612Z,101184.51
2018-09-22T02:49:04.158Z,101191.94
2018-09-22T02:50:09.617Z,101184.66
2018-09-22T02:51:15.021Z,101189.84
2018-09-22T02:52:20.508Z,101189.89
2018-09-22T02:53:25.924Z,101188.23
2018-09-22T02:54:31.421Z,101199.81
2018-09-22T02:55:36.961Z,101191.30
2018-09-22T02:56:42.396Z,101198.63
2018-09-22T02:57:47.821Z,101195.22
2018-09-22T02:58:53.232Z,101202.55
2018-09-22T02:59:58.660Z,101194.86
2018-09-22T03:01:04.240Z,101208.98
2018-09-22T03:02:09.980Z,101196.63
2018-09-22T03:03:15.436Z,101203.11
2018-09-22T03:04:21.041Z,101197.27
2018-09-22T03:05:26.505Z,101194.33
2018-09-22T03:06:32.382Z,101197.79
2018-09-22T03:07:37.789Z,101198.60
2018-09-22T03:08:43.229Z,101196.99
2018-09-22T03:09:48.670Z,101196.13
2018-09-22T03:10:54.076Z,101204.70
2018-09-22T03:11:59.543Z,101202.14
2018-09-22T03:13:05.071Z,101199.54
2018-09-22T03:14:10.789Z,101207.17
2018-09-22T03:15:16.308Z,101202.47
2018-09-22T03:16:21.772Z,101204.66
2018-09-22T03:17:27.177Z,101202.05
2018-09-22T03:18:32.664Z,101196.02
2018-09-22T03:19:38.142Z,101192.22
2018-09-22T03:20:43.761Z,101205.03
2018-09-22T03:21:49.297Z,101209.41
2018-09-22T03:22:54.826Z,101211.99
2018-09-22T03:24:00.286Z,101214.62
2018-09-22T03:25:05.924Z,101217.61
2018-09-22T03:26:11.429Z,101215.12
2018-09-22T03:27:16.871Z,101220.66
2018-09-22T03:28:22.287Z,101218.56
2018-09-22T03:29:27.763Z,101222.41
2018-09-22T03:30:33.277Z,101216.44
2018-09-22T03:31:38.706Z,101219.91
2018-09-22T03:32:44.152Z,101223.31
2018-09-22T03:33:49.611Z,101227.60
2018-09-22T03:34:55.053Z,101228.45
2018-09-22T03:36:00.498Z,101224.22
2018-09-22T03:37:06.015Z,101225.06
2018-09-22T03:38:11.626Z,101221.23
2018-09-22T03:39:17.042Z,101227.58
2018-09-22T03:40:22.493Z,101227.97
2018-09-22T03:41:27.908Z,101232.23
2018-09-22T03:42:33.434Z,101237.75
2018-09-22T03:43:38.971Z,101233.87
2018-09-22T03:44:44.404Z,101231.27
2018-09-22T03:45:49.808Z,101236.39
2018-09-22T03:46:55.293Z,101235.17
2018-09-22T03:48:00.749Z,101236.01
2018-09-22T03:49:06.509Z,101235.64
2018-09-22T03:50:11.934Z,101235.64
2018-09-22T03:51:17.404Z,101235.66
2018-09-22T03:52:22.922Z,101235.68
2018-09-22T03:53:28.352Z,101240.80
2018-09-22T03:54:33.822Z,101234.40
2018-09-22T03:55:39.498Z,101234.84
2018-09-22T03:56:45.014Z,101229.37
2018-09-22T03:57:50.516Z,101238.82
2018-09-22T03:58:55.994Z,101238.41
2018-09-22T04:00:01.472Z,101239.72
2018-09-22T04:01:07.174Z,101239.72
2018-09-22T04:02:12.606Z,101240.18
2018-09-22T04:03:18.032Z,101245.30
2018-09-22T04:04:24.027Z,101250.45
2018-09-22T04:05:29.501Z,101246.66
2018-09-22T04:06:34.942Z,101247.94
2018-09-22T04:07:40.409Z,101247.56
2018-09-22T04:08:45.918Z,101246.28
2018-09-22T04:09:51.338Z,101248.81
2018-09-22T04:10:56.752Z,101246.75
2018-09-22T04:12:02.238Z,101245.91
2018-09-22T04:13:07.686Z,101250.57
2018-09-22T04:14:13.355Z,101254.02
2018-09-22T04:15:18.827Z,101253.59
2018-09-22T04:16:24.372Z,101251.87
2018-09-22T04:17:29.947Z,101260.85
2018-09-22T04:18:35.418Z,101263.39
2018-09-22T04:19:40.886Z,101263.80
2018-09-22T04:20:46.411Z,101260.34
2018-09-22T04:21:51.831Z,101265.87
2018-09-22T04:22:57.343Z,101268.82
2018-09-22T04:24:10.661Z,101273.16
2018-09-22T04:25:16.132Z,101268.04
2018-09-22T04:26:21.573Z,101270.14
2018-09-22T04:27:27.115Z,101268.86
2018-09-22T04:28:32.611Z,101267.56
2018-09-22T04:29:38.211Z,101267.56
2018-09-22T04:30:43.720Z,101271.41
2018-09-22T04:31:49.581Z,101271.48
2018-09-22T04:32:55.059Z,101268.96
2018-09-22T04:34:00.633Z,101278.85
2018-09-22T04:35:06.225Z,101272.02
2018-09-22T04:36:11.934Z,101274.10
2018-09-22T04:37:17.414Z,101273.25
2018-09-22T04:38:22.825Z,101276.64
2018-09-22T04:39:28.269Z,101285.63
2018-09-22T04:40:33.889Z,101283.09
2018-09-22T04:41:40.832Z,101283.53
2018-09-22T04:42:46.478Z,101274.55
2018-09-22T04:43:52.014Z,101276.66
2018-09-22T04:44:57.422Z,101272.45
2018-09-22T04:46:03.157Z,101278.49
2018-09-22T04:47:08.593Z,101279.72
2018-09-22T04:48:14.115Z,101278.42
2018-09-22T04:49:19.615Z,101274.58
2018-09-22T04:50:25.091Z,101275.86
2018-09-22T04:51:30.705Z,101272.84
2018-09-22T04:52:36.153Z,101271.09
2018-09-22T04:53:41.823Z,101274.92
2018-09-22T04:54:47.268Z,101276.63
2018-09-22T04:55:52.762Z,101276.20
2018-09-22T04:56:58.257Z,101287.71
2018-09-22T04:58:03.744Z,101286.07
2018-09-22T04:59:09.170Z,101288.98
2018-09-22T05:00:14.802Z,101292.80
2018-09-22T05:01:20.306Z,101288.50
2018-09-22T05:02:25.813Z,101292.71
2018-09-22T05:03:31.229Z,101296.52
2018-09-22T05:04:36.873Z,101298.60
2018-09-22T05:05:42.409Z,101293.81
2018-09-22T05:06:47.823Z,101293.80
2018-09-22T05:07:53.192Z,101295.50
2018-09-22T05:08:58.644Z,101294.23
2018-09-22T05:10:04.241Z,101295.52
2018-09-22T05:11:09.729Z,101291.66
2018-09-22T05:12:15.253Z,101296.38
2018-09-22T05:13:20.680Z,101289.95
2018-09-22T05:14:26.247Z,101294.63
2018-09-22T05:15:31.893Z,101300.63
2018-09-22T05:16:38.084Z,101300.64
2018-09-22T05:17:43.569Z,101303.19
2018-09-22T05:18:49.033Z,101310.41
2018-09-22T05:19:54.582Z,101305.80
2018-09-22T05:21:00.168Z,101313.51
2018-09-22T05:22:05.846Z,101313.92
2018-09-22T05:23:11.296Z,101316.52
2018-09-22T05:24:16.725Z,101318.16
2018-09-22T05:25:22.317Z,101316.96
2018-09-22T05:26:27.799Z,101313.92
2018-09-22T05:27:33.278Z,101314.31
2018-09-22T05:28:38.780Z,101316.47
2018-09-22T05:29:44.248Z,101314.27
2018-09-22T05:30:49.706Z,101315.52
2018-09-22T05:31:55.136Z,101312.49
2018-09-22T05:33:00.637Z,101318.88
2018-09-22T05:34:06.239Z,101319.30
2018-09-22T05:35:11.705Z,101324.40
2018-09-22T05:36:17.133Z,101328.72
2018-09-22T05:37:22.586Z,101323.14
2018-09-22T05:38:28.036Z,101331.29
2018-09-22T05:39:33.466Z,101328.70
2018-09-22T05:40:38.986Z,101338.03
2018-09-22T05:41:44.561Z,101345.72
2018-09-22T05:42:49.957Z,101339.70
2018-09-22T05:43:55.477Z,101329.83
2018-09-22T05:45:00.922Z,101338.81
2018-09-22T05:46:06.408Z,101336.20
2018-09-22T05:47:11.854Z,101334.45
2018-09-22T05:48:17.325Z,101341.23
2018-09-22T05:49:22.829Z,101336.06
2018-09-22T05:50:28.285Z,101333.04
2018-09-22T05:51:34.688Z,101338.63
2018-09-22T05:52:40.222Z,101328.34
2018-09-22T05:53:45.714Z,101338.14
2018-09-22T05:54:51.136Z,101336.86
2018-09-22T05:55:56.598Z,101332.64
2018-09-22T05:57:02.093Z,101333.41
2018-09-22T05:58:07.670Z,101329.98
2018-09-22T05:59:13.283Z,101331.25
2018-09-22T06:00:18.759Z,101327.31
2018-09-22T06:01:24.237Z,101334.59
2018-09-22T06:02:29.673Z,101321.75
2018-09-22T06:03:35.329Z,101330.30
2018-09-22T06:04:40.791Z,101335.41
2018-09-22T06:05:46.274Z,101336.27
2018-09-22T06:06:51.744Z,101334.97
2018-09-22T06:07:57.393Z,101328.06
2018-09-22T06:09:02.844Z,101332.70
2018-09-22T06:10:08.573Z,101325.42
2018-09-22T06:11:14.222Z,101335.70
2018-09-22T06:12:19.682Z,101337.77
2018-09-22T06:13:25.103Z,101337.70
2018-09-22T06:14:30.672Z,101337.27
2018-09-22T06:15:36.180Z,101341.93
2018-09-22T06:16:41.677Z,101346.59
2018-09-22T06:17:47.136Z,101345.35
2018-09-22T06:18:52.699Z,101349.20
2018-09-22T06:19:58.118Z,101345.31
2018-09-22T06:21:03.579Z,101347.39
2018-09-22T06:22:09.033Z,101352.05
2018-09-22T06:23:14.593Z,101352.44
2018-09-22T06:24:20.030Z,101352.39
2018-09-22T06:25:25.476Z,101351.46
2018-09-22T06:26:30.965Z,101353.99
2018-09-22T06:27:36.396Z,101353.55
2018-09-22T06:28:41.975Z,101352.22
2018-09-22T06:29:47.557Z,101352.64
2018-09-22T06:30:53.215Z,101350.08
2018-09-22T06:31:58.744Z,101351.36
2018-09-22T06:33:04.367Z,101355.53
2018-09-22T06:34:09.986Z,101357.18
2018-09-22T06:35:15.413Z,101355.45
2018-09-22T06:36:20.886Z,101353.28
2018-09-22T06:37:26.306Z,101353.62
2018-09-22T06:38:31.759Z,101351.86
2018-09-22T06:39:37.274Z,101354.89
2018-09-22T06:40:42.738Z,101352.30
2018-09-22T06:41:48.347Z,101347.98
2018-09-22T06:42:53.791Z,101350.91
2018-09-22T06:43:59.254Z,101348.37
2018-09-22T06:45:04.725Z,101352.22
2018-09-22T06:46:10.417Z,101354.72
2018-09-22T06:47:16.243Z,101355.16
2018-09-22T06:48:21.749Z,101352.96
2018-09-22T06:49:27.529Z,101361.88
2018-09-22T06:50:32.973Z,101364.78
2018-09-22T06:51:38.415Z,101362.19
2018-09-22T06:52:43.941Z,101359.63
2018-09-22T06:53:49.418Z,101358.39
2018-09-22T06:54:54.962Z,101357.87
2018-09-22T06:56:00.399Z,101358.70
2018-09-22T06:57:05.926Z,101355.19
2018-09-22T06:58:11.481Z,101357.73
2018-09-22T06:59:17.051Z,101357.71
2018-09-22T07:00:22.524Z,101358.50
2018-09-22T07:01:28.017Z,101358.44
2018-09-22T07:02:33.457Z,101363.89
2018-09-22T07:03:39.058Z,101366.32
2018-09-22T07:04:44.526Z,101370.55
2018-09-22T07:05:49.937Z,101370.98
2018-09-22T07:06:55.342Z,101371.86
2018-09-22T07:08:00.889Z,101368.34
2018-09-22T07:09:08.167Z,101368.28
2018-09-22T07:10:13.714Z,101366.58
2018-09-22T07:11:19.153Z,101368.26
2018-09-22T07:12:24.648Z,101368.17
2018-09-22T07:13:30.123Z,101369.83
2018-09-22T07:14:35.510Z,101375.80
2018-09-22T07:15:40.975Z,101373.17
2018-09-22T07:16:46.826Z,101377.36
2018-09-22T07:17:52.302Z,101374.65
2018-09-22T07:18:57.739Z,101378.45
2018-09-22T07:20:03.235Z,101383.47
2018-09-22T07:21:09.796Z,101380.84
2018-09-22T07:22:20.433Z,101382.45
2018-09-22T07:23:25.870Z,101379.86
2018-09-22T07:24:31.361Z,101386.68
2018-09-22T07:25:36.948Z,101382.25
2018-09-22T07:26:42.385Z,101385.70
2018-09-22T07:27:47.860Z,101379.59
2018-09-22T07:28:53.429Z,101380.38
2018-09-22T07:29:58.900Z,101379.44
2018-09-22T07:31:04.444Z,101382.89
2018-09-22T07:32:09.953Z,101381.98
2018-09-22T07:33:15.549Z,101387.88
2018-09-22T07:34:21.302Z,101382.19
2018-09-22T07:35:27.059Z,101382.58
2018-09-22T07:36:32.854Z,101380.01
2018-09-22T07:37:39.014Z,101374.77
2018-09-22T07:38:44.837Z,101376.05
2018-09-22T07:39:50.733Z,101378.12
2018-09-22T07:40:56.281Z,101390.59
2018-09-22T07:42:02.056Z,101392.20
2018-09-22T07:43:07.893Z,101390.98
2018-09-22T07:44:13.685Z,101386.48
2018-09-22T07:45:19.445Z,101388.22
2018-09-22T07:46:25.221Z,101383.04
2018-09-22T07:47:30.954Z,101385.97
2018-09-22T07:48:36.479Z,101383.23
2018-09-22T07:49:42.216Z,101373.23
2018-09-22T07:50:47.601Z,101381.33
2018-09-22T07:51:53.074Z,101385.30
2018-09-22T07:52:58.497Z,101384.01
2018-09-22T07:54:03.961Z,101388.73
2018-09-22T07:55:09.506Z,101386.91
2018-09-22T07:56:15.081Z,101388.41
2018-09-22T07:57:20.546Z,101370.70
2018-09-22T07:58:26.042Z,101373.22
2018-09-22T07:59:31.508Z,101370.70
2018-09-22T08:00:37.296Z,101372.48
2018-09-22T08:01:42.856Z,101380.20
2018-09-22T08:02:48.341Z,101386.60
2018-09-22T08:03:53.842Z,101388.23
2018-09-22T08:04:59.542Z,101398.67
2018-09-22T08:06:05.277Z,101399.44
2018-09-22T08:07:10.972Z,101398.16
2018-09-22T08:08:16.659Z,101400.76
2018-09-22T08:09:22.284Z,101410.60
2018-09-22T08:10:27.985Z,101420.28
2018-09-22T08:11:33.723Z,101414.97
2018-09-22T08:12:39.420Z,101414.31
2018-09-22T08:13:45.310Z,101412.13
2018-09-22T08:14:50.932Z,101411.64
2018-09-22T08:15:56.700Z,101408.05
2018-09-22T08:17:02.415Z,101411.71
2018-09-22T08:18:08.043Z,101412.06
2018-09-22T08:19:13.809Z,101409.76
2018-09-22T08:20:19.704Z,101414.25
2018-09-22T08:21:25.320Z,101415.77
2018-09-22T08:22:31.134Z,101420.21
2018-09-22T08:23:36.802Z,101417.07
2018-09-22T08:24:42.718Z,101416.95
2018-09-22T08:25:48.497Z,101417.30
2018-09-22T08:26:54.209Z,101414.65
2018-09-22T08:28:00.005Z,101415.33
2018-09-22T08:29:06.219Z,101414.34
2018-09-22T08:30:11.796Z,101414.69
2018-09-22T08:31:17.687Z,101421.89
2018-09-22T08:32:23.376Z,101420.48
2018-09-22T08:33:29.110Z,101422.38
2018-09-22T08:34:34.857Z,101422.22
2018-09-22T08:35:40.395Z,101426.80
2018-09-22T08:36:45.967Z,101430.02
2018-09-22T08:37:51.465Z,101433.77
2018-09-22T08:38:57.224Z,101442.22
2018-09-22T08:40:02.647Z,101437.98
2018-09-22T08:41:08.232Z,101433.15
2018-09-22T08:42:13.749Z,101434.24
2018-09-22T08:43:19.248Z,101430.21
2018-09-22T08:44:24.721Z,101428.50
2018-09-22T08:45:30.577Z,101427.55
2018-09-22T08:46:37.420Z,101429.96
2018-09-22T08:47:42.942Z,101432.20
2018-09-22T08:48:48.448Z,101441.61
2018-09-22T08:49:53.917Z,101437.66
2018-09-22T08:50:59.410Z,101437.11
2018-09-22T08:52:04.913Z,101439.81
2018-09-22T08:53:11.485Z,101445.31
2018-09-22T08:54:17.077Z,101445.30
2018-09-22T08:55:22.537Z,101438.03
2018-09-22T08:56:28.117Z,101439.73
2018-09-22T08:57:33.681Z,101433.27
2018-09-22T08:58:39.198Z,101428.80
2018-09-22T08:59:44.891Z,101426.05
2018-09-22T09:00:50.365Z,101427.08
2018-09-22T09:01:55.866Z,101419.18
2018-09-22T09:03:01.393Z,101416.87
2018-09-22T09:04:06.873Z,101410.32
2018-09-22T09:05:12.800Z,101423.47
2018-09-22T09:06:18.249Z,101417.55
2018-09-22T09:07:23.717Z,101420.52
2018-09-22T09:08:29.173Z,101418.90
2018-09-22T09:09:34.648Z,101416.36
2018-09-22T09:10:40.421Z,101420.56
2018-09-22T09:11:46.093Z,101419.69
2018-09-22T09:12:51.521Z,101417.43
2018-09-22T09:13:56.979Z,101426.33
2018-09-22T09:15:02.438Z,101431.78
2018-09-22T09:16:07.932Z,101428.55
2018-09-22T09:17:13.641Z,101435.98
2018-09-22T09:18:19.055Z,101439.39
2018-09-22T09:19:24.613Z,101431.19
2018-09-22T09:20:30.121Z,101426.27
2018-09-22T09:21:35.593Z,101427.81
2018-09-22T09:22:41.201Z,101430.98
2018-09-22T09:23:46.825Z,101422.15
2018-09-22T09:24:52.333Z,101419.78
2018-09-22T09:25:57.830Z,101416.91
2018-09-22T09:27:03.355Z,101416.20
2018-09-22T09:28:08.901Z,101414.72
2018-09-22T09:29:14.446Z,101410.11
2018-09-22T09:30:19.953Z,101413.88
2018-09-22T09:31:25.462Z,101412.59
2018-09-22T09:32:30.917Z,101413.22
2018-09-22T09:33:36.416Z,101406.34
2018-09-22T09:34:41.899Z,101417.42
2018-09-22T09:35:47.366Z,101411.14
2018-09-22T09:36:53.040Z,101408.71
2018-09-22T09:37:58.662Z,101409.12
2018-09-22T09:39:05.522Z,101405.10
2018-09-22T09:40:11.115Z,101413.22
2018-09-22T09:41:16.595Z,101416.69
2018-09-22T09:42:22.161Z,101414.46
2018-09-22T09:43:27.683Z,101417.98
2018-09-22T09:44:33.205Z,101413.44
2018-09-22T09:45:38.653Z,101425.54
2018-09-22T09:46:44.130Z,101414.56
2018-09-22T09:47:49.912Z,101404.73
2018-09-22T09:48:55.392Z,101405.73
2018-09-22T09:50:00.924Z,101409.55
2018-09-22T09:51:06.475Z,101401.03
2018-09-22T09:52:12.009Z,101408.64
2018-09-22T09:53:17.501Z,101403.16
2018-09-22T09:54:23.225Z,101398.70
2018-09-22T09:55:28.749Z,101400.67
2018-09-22T09:56:34.530Z,101393.63
2018-09-22T09:57:40.004Z,101400.30
2018-09-22T09:58:45.571Z,101395.50
2018-09-22T09:59:51.065Z,101395.34
2018-09-22T10:00:56.555Z,101389.70
2018-09-22T10:02:02.087Z,101396.28
2018-09-22T10:03:07.580Z,101394.66
2018-09-22T10:04:13.395Z,101399.95
2018-09-22T10:05:19.282Z,101394.47
2018-09-22T10:06:24.897Z,101395.45
2018-09-22T10:07:30.422Z,101392.13
2018-09-22T10:08:35.969Z,101387.09
2018-09-22T10:09:41.430Z,101398.55
2018-09-22T10:10:47.609Z,101395.06
2018-09-22T10:11:53.278Z,101398.81
2018-09-22T10:12:58.739Z,101400.88
2018-09-22T10:14:04.190Z,101399.24
2018-09-22T10:15:09.709Z,101394.80
2018-09-22T10:16:15.239Z,101398.89
2018-09-22T10:17:20.665Z,101403.59
2018-09-22T10:18:26.098Z,101403.64
2018-09-22T10:19:31.650Z,101404.71
2018-09-22T10:20:37.109Z,101412.08
2018-09-22T10:21:43.039Z,101422.32
2018-09-22T10:22:48.490Z,101416.77
2018-09-22T10:23:53.989Z,101414.40
2018-09-22T10:24:59.510Z,101412.00
2018-09-22T10:26:05.081Z,101411.70
2018-09-22T10:27:10.675Z,101410.15
2018-09-22T10:28:16.270Z,101414.98
2018-09-22T10:29:21.764Z,101422.33
2018-09-22T10:30:27.281Z,101427.86
2018-09-22T10:31:32.772Z,101426.98
2018-09-22T10:32:38.321Z,101438.96
2018-09-22T10:33:43.868Z,101441.38
2018-09-22T10:34:49.329Z,101419.04
2018-09-22T10:35:54.776Z,101410.19
2018-09-22T10:37:00.218Z,101400.19
2018-09-22T10:38:05.789Z,101409.11
2018-09-22T10:39:11.605Z,101408.97
2018-09-22T10:40:17.169Z,101414.91
2018-09-22T10:41:22.745Z,101405.24
2018-09-22T10:42:28.294Z,101403.72
2018-09-22T10:43:33.873Z,101405.61
2018-09-22T10:44:39.368Z,101407.80
2018-09-22T10:45:44.991Z,101416.23
2018-09-22T10:46:50.434Z,101415.99
2018-09-22T10:47:56.001Z,101409.59
2018-09-22T10:49:01.574Z,101411.53
2018-09-22T10:50:07.406Z,101409.65
2018-09-22T10:51:13.017Z,101419.06
2018-09-22T10:52:18.546Z,101408.34
2018-09-22T10:53:24.073Z,101400.66
2018-09-22T10:54:29.651Z,101391.59
2018-09-22T10:55:35.085Z,101390.80
2018-09-22T10:56:40.564Z,101381.53
2018-09-22T10:57:46.244Z,101388.41
2018-09-22T10:58:51.941Z,101384.23
2018-09-22T10:59:57.400Z,101375.13
2018-09-22T11:01:02.940Z,101368.31
2018-09-22T11:02:09.538Z,101375.84
2018-09-22T11:03:18.773Z,101380.02
2018-09-22T11:04:25.349Z,101376.80
2018-09-22T11:05:32.339Z,101370.56
2018-09-22T11:06:38.274Z,101377.69
2018-09-22T11:07:43.732Z,101377.46
2018-09-22T11:08:49.231Z,101379.23
2018-09-22T11:09:54.736Z,101387.52
2018-09-22T11:11:00.208Z,101391.66
2018-09-22T11:12:05.736Z,101395.66
2018-09-22T11:13:11.284Z,101395.70
2018-09-22T11:14:16.721Z,101382.95
2018-09-22T11:15:22.189Z,101387.39
2018-09-22T11:16:27.692Z,101387.62
2018-09-22T11:17:33.188Z,101385.80
2018-09-22T11:18:38.707Z,101383.83
2018-09-22T11:19:44.183Z,101381.52
2018-09-22T11:20:49.686Z,101382.63
2018-09-22T11:21:55.232Z,101381.67
2018-09-22T11:23:00.668Z,101383.22
2018-09-22T11:24:06.130Z,101378.98
2018-09-22T11:25:11.643Z,101378.30
2018-09-22T11:26:17.104Z,101382.27
2018-09-22T11:27:22.573Z,101379.25
2018-09-22T11:28:27.969Z,101385.25
2018-09-22T11:29:33.554Z,101385.22
2018-09-22T11:30:39.085Z,101382.55
2018-09-22T11:31:44.557Z,101377.41
2018-09-22T11:32:50.009Z,101375.68
2018-09-22T11:33:55.481Z,101373.80
2018-09-22T11:35:01.135Z,101381.59
2018-09-22T11:36:06.885Z,101382.23
2018-09-22T11:37:12.293Z,101380.30
2018-09-22T11:38:17.807Z,101378.59
2018-09-22T11:39:23.217Z,101378.22
2018-09-22T11:40:28.643Z,101376.98
2018-09-22T11:41:34.199Z,101386.67
2018-09-22T11:42:39.657Z,101396.50
2018-09-22T11:43:45.196Z,101418.55
2018-09-22T11:44:50.676Z,101434.25
2018-09-22T11:45:56.173Z,101443.99
2018-09-22T11:47:01.637Z,101461.55
2018-09-22T11:48:07.109Z,101472.44
2018-09-22T11:49:12.749Z,101466.91
2018-09-22T11:50:18.253Z,101459.86
2018-09-22T11:51:23.738Z,101452.52
2018-09-22T11:52:29.186Z,101446.81
2018-09-22T11:53:34.643Z,101446.37
2018-09-22T11:54:40.329Z,101444.16
2018-09-22T11:55:45.824Z,101448.38
2018-09-22T11:56:51.369Z,101457.42
2018-09-22T11:57:56.829Z,101458.84
2018-09-22T11:59:02.449Z,101465.14
2018-09-22T12:00:08.192Z,101457.70
2018-09-22T12:01:13.712Z,101452.09
2018-09-22T12:02:19.192Z,101444.88
2018-09-22T12:03:24.745Z,101449.33
2018-09-22T12:04:30.267Z,101436.44
2018-09-22T12:05:35.747Z,101429.94
2018-09-22T12:06:41.358Z,101425.61
2018-09-22T12:07:46.825Z,101422.99
2018-09-22T12:08:52.296Z,101422.57
2018-09-22T12:09:57.738Z,101426.90
2018-09-22T12:11:03.453Z,101422.12
2018-09-22T12:12:09.081Z,101416.15
2018-09-22T12:13:14.602Z,101418.27
2018-09-22T12:14:20.075Z,101415.94
2018-09-22T12:15:25.725Z,101408.87
2018-09-22T12:16:31.162Z,101403.09
2018-09-22T12:17:36.637Z,101399.39
2018-09-22T12:18:42.095Z,101396.13
2018-09-22T12:19:48.068Z,101394.25
2018-09-22T12:20:53.561Z,101392.96
2018-09-22T12:21:58.981Z,101397.36
2018-09-22T12:23:04.491Z,101399.69
2018-09-22T12:24:09.964Z,101392.72
2018-09-22T12:25:15.393Z,101391.25
2018-09-22T12:26:20.875Z,101387.45
2018-09-22T12:27:26.348Z,101385.81
2018-09-22T12:28:31.990Z,101381.44